Lake Charles, LA

6:07 AM CDT on October 23, 2014 (GMT -0500)
Prien | Change Station
CLOSE
Current Station
Personal Weather Station
Location: Lake Charles, LA
Elevation: 46 ft
Nearby Weather Stations

Elev 46 ft 30.19 °N, 93.27 °W | Updated 7 seconds ago

Clear
Clear
56.8 °F
Feels Like 56.8 °F
N
0.0
Wind Variable Wind from NNW
Gusts 0.0 mph

Today
High -- | Low -- °F
--% Chance of Precip.
Yesterday
High -- | Low -- °F
Precip. -- in
7:20 AM 6:33 PM
Waning Crescent, 0% visible
Pressure 30.09 in
Visibility 10.0 miles
Clouds Clear
Dew Point 54 °F
Humidity 92%
Rainfall 0.00 in
Snow Depth Not available.
UV 0 out of 12
Pollen 4.60 out of 12
Air Quality Not available.
Flu Activity Sporadic
SPECI KCWF 231100Z 02006KT 10SM SKC 13/11 A3009

More Conditions Fewer Conditions

Pressure 30.09 in
Visibility 10.0 miles
Clouds Clear
Dew Point 54 °F
Humidity 92%
Rainfall 0.00 in
Snow Depth Not available.
UV 0 out of 12
Pollen 4.60 out of 12
Air Quality Not available.
Flu Activity Sporadic
SPECI KCWF 231100Z 02006KT 10SM SKC 13/11 A3009

More Conditions Fewer Conditions

10-Day Weather Forecast

Almanac

Astronomy

Oct. 23, 2014 Rise Set
Actual Time 7:20 AM CDT 6:33 PM CDT
Civil Twilight 6:55 AM CDT 6:57 PM CDT
Nautical Twilight 6:27 AM CDT 7:25 PM CDT
Astronomical Twilight 5:59 AM CDT 7:53 PM CDT
Moon 7:01 AM CDT 6:35 PM CDT
Length of Visible Light 12h 01m
Length of Day
11h 13m
Tomorrow will be 1m 40s shorter.
Waning Crescent, 0% of the Moon is Illuminated
Today
Waning Crescent
Oct 23
New
Oct 30
First Quarter
Nov 6
Full
Nov 14
Last Quarter

Today's Extremes

State Highs State Lows

Community

WunderPhotos

Upload Photos

1,764,204 photos uploaded!

Nearby

Snow Depth

Station Depth Elevation
No new snow has been reported.

Earthquake Activity

City Distance Mag. Time & Date
No recent earthquake activity has been reported nearby.
Minimum magnitude displayed is 2.5.

Coastal Water Temperatures

Place Temperature
Calcasieu Pass, LA 72.0 °F
Sabine Pass North, TX 73.0 °F
Port Arthur, TX 75.0 °F
Fresh Water Canal Locks, LA 75.0 °F
Rollover Pass, TX 71.1 °F

Nearby Weather Stations